Time;durP1;ratioP1;P1;durP2;ratioP2;P2;SDS_P1;SDS_P2;PMS_P1;PMS_P2;Temp;Humidity;BMP_temperature;BMP_pressure;BME280_temperature;BME280_humidity;BME280_pressure;Samples;Min_cycle;Max_cycle;Signal;HPM_P1;HPM_P2
2022/10/24 00:01:15;;;;;;;9.75;6.95;;;;;;;12.46;100.00;100792.41;5073832;28;20095;-73
2022/10/24 00:03:41;;;;;;;10.45;7.43;;;;;;;12.47;100.00;100835.72;5073443;28;20029;-73
2022/10/24 00:06:08;;;;;;;9.88;7.50;;;;;;;12.61;100.00;100850.72;5072583;28;20036;-73
2022/10/24 00:08:35;;;;;;;11.23;7.93;;;;;;;12.67;100.00;100858.22;5072893;28;20028;-73
2022/10/24 00:11:00;;;;;;;12.55;8.20;;;;;;;12.68;100.00;100854.78;5073807;28;20044;-74
2022/10/24 00:13:26;;;;;;;11.35;7.97;;;;;;;12.48;100.00;100846.75;5073520;28;20032;-74
2022/10/24 00:15:51;;;;;;;11.13;7.60;;;;;;;12.01;100.00;100792.50;5073951;28;20027;-74
2022/10/24 00:18:17;;;;;;;14.18;7.70;;;;;;;11.61;100.00;100804.31;5073017;28;20028;-73
2022/10/24 00:20:43;;;;;;;13.90;7.72;;;;;;;12.16;100.00;100853.34;5072593;28;20048;-74
2022/10/24 00:23:09;;;;;;;8.80;7.22;;;;;;;12.10;100.00;100867.97;5073561;28;20020;-74
2022/10/24 00:25:35;;;;;;;9.88;6.85;;;;;;;12.03;100.00;100854.47;5073504;28;20032;-73
2022/10/24 00:28:01;;;;;;;8.82;6.50;;;;;;;11.22;100.00;100779.59;5073741;28;20037;-74
2022/10/24 00:30:26;;;;;;;9.18;6.00;;;;;;;11.31;100.00;100781.97;5073427;28;20128;-73
2022/10/24 00:32:52;;;;;;;9.32;6.00;;;;;;;11.91;100.00;100805.47;5073488;28;20032;-73
2022/10/24 00:35:18;;;;;;;7.85;6.13;;;;;;;11.62;100.00;100762.72;5072079;28;20131;-74
2022/10/24 00:37:43;;;;;;;8.10;5.95;;;;;;;11.56;100.00;100838.38;5073366;28;20029;-73
2022/10/24 00:40:13;;;;;;;11.73;7.00;;;;;;;10.63;100.00;100718.72;5072009;28;20502;-73
2022/10/24 00:42:38;;;;;;;9.70;7.40;;;;;;;11.43;100.00;100834.38;5073121;28;20057;-73
2022/10/24 00:45:43;;;;;;;10.57;7.18;;;;;;;11.45;100.00;100828.38;5072810;28;20457;-73
2022/10/24 00:48:24;;;;;;;12.18;6.82;;;;;;;10.80;100.00;100770.97;5072347;28;20111;-74
2022/10/24 00:50:54;;;;;;;9.15;6.28;;;;;;;10.81;100.00;100766.75;5072238;28;20127;-73
2022/10/24 00:53:22;;;;;;;11.55;5.07;;;;;;;11.34;100.00;100833.69;5071172;28;20498;-72
2022/10/24 00:55:51;;;;;;;8.00;5.90;;;;;;;11.28;100.00;100771.84;5072698;28;20555;-74
2022/10/24 00:58:20;;;;;;;9.10;6.82;;;;;;;11.29;100.00;100840.53;5072873;28;20028;-73
2022/10/24 01:00:46;;;;;;;9.60;6.35;;;;;;;11.07;100.00;100840.94;5073116;28;20033;-73
2022/10/24 01:03:11;;;;;;;10.55;5.65;;;;;;;10.95;100.00;100848.75;5072540;28;20038;-73
2022/10/24 01:06:21;;;;;;;8.32;5.68;;;;;;;11.12;100.00;100836.59;5071808;28;20029;-73
2022/10/24 01:09:02;;;;;;;5.88;5.10;;;;;;;10.92;100.00;100786.03;5061915;28;20041;-73
2022/10/24 01:11:46;;;;;;;6.13;3.83;;;;;;;11.24;100.00;100847.44;5072159;28;20089;-72
2022/10/24 01:14:22;;;;;;;8.48;4.15;;;;;;;10.54;100.00;100754.47;5070739;28;20036;-72
2022/10/24 01:17:02;;;;;;;5.22;3.78;;;;;;;10.93;100.00;100843.69;5072035;28;20032;-73
2022/10/24 01:19:50;;;;;;;5.55;3.88;;;;;;;11.17;100.00;100838.19;5072048;28;20476;-74
2022/10/24 01:22:23;;;;;;;9.43;5.35;;;;;;;10.57;100.00;100765.41;5072196;28;20086;-73
2022/10/24 01:25:10;;;;;;;10.90;5.97;;;;;;;10.76;100.00;100830.38;5072244;28;20040;-74
2022/10/24 01:28:19;;;;;;;8.32;6.35;;;;;;;10.74;100.00;100780.41;5072621;28;20119;-74
2022/10/24 01:31:20;;;;;;;8.80;6.30;;;;;;;10.28;100.00;100737.06;5071321;28;20040;-73
2022/10/24 01:33:56;;;;;;;10.70;6.47;;;;;;;10.81;100.00;100832.88;5071904;28;20048;-75
2022/10/24 01:36:46;;;;;;;10.18;6.32;;;;;;;11.10;100.00;100825.59;5071924;28;20024;-74
2022/10/24 01:39:15;;;;;;;8.00;6.22;;;;;;;10.78;100.00;100785.41;5072046;28;20028;-74
2022/10/24 01:41:42;;;;;;;10.30;6.60;;;;;;;10.91;100.00;100824.22;5058790;28;20500;-74
2022/10/24 01:44:17;;;;;;;9.77;5.95;;;;;;;10.62;100.00;100778.88;5050208;28;20122;-73
2022/10/24 01:46:50;;;;;;;12.18;6.15;;;;;;;11.01;100.00;100823.22;5051588;28;20021;-73
2022/10/24 01:49:19;;;;;;;7.50;5.80;;;;;;;11.26;100.00;100837.22;5051600;28;20051;-74
2022/10/24 01:51:48;;;;;;;9.75;6.07;;;;;;;11.15;100.00;100809.38;5050033;28;20021;-73
2022/10/24 01:54:14;;;;;;;8.05;5.90;;;;;;;11.12;100.00;100834.06;5040452;28;20034;-75
2022/10/24 01:56:39;;;;;;;10.05;5.53;;;;;;;10.92;100.00;100831.84;5048935;28;20051;-74
2022/10/24 01:59:28;;;;;;;9.65;5.50;;;;;;;11.26;100.00;100827.03;5037426;28;20500;-74
2022/10/24 02:02:07;;;;;;;9.77;5.30;;;;;;;10.96;100.00;100769.88;5030639;28;20076;-75
2022/10/24 02:04:37;;;;;;;6.40;4.85;;;;;;;11.36;100.00;100820.91;5029589;28;20045;-74
2022/10/24 02:07:07;;;;;;;8.10;4.97;;;;;;;10.45;100.00;100707.13;5031536;28;20060;-74
2022/10/24 02:09:37;;;;;;;6.80;5.47;;;;;;;10.93;100.00;100819.97;5031731;28;20054;-74
2022/10/24 02:12:04;;;;;;;6.53;5.30;;;;;;;11.07;100.00;100831.56;5031592;28;20492;-73
2022/10/24 02:14:34;;;;;;;10.40;5.65;;;;;;;10.90;100.00;100799.63;5031733;28;20491;-74
2022/10/24 02:17:02;;;;;;;9.52;6.75;;;;;;;10.77;100.00;100760.88;5030537;28;20049;-74
2022/10/24 02:19:29;;;;;;;12.85;7.85;;;;;;;11.19;100.00;100836.47;5031501;28;20890;-74
2022/10/24 02:22:14;;;;;;;12.38;8.30;;;;;;;11.35;100.00;100845.53;5037329;28;20103;-74
2022/10/24 02:24:47;;;;;;;12.25;7.72;;;;;;;11.08;100.00;100834.97;5030086;28;20119;-73
2022/10/24 02:27:22;;;;;;;9.70;6.93;;;;;;;10.48;100.00;100768.09;5031720;28;20037;-74
2022/10/24 02:29:55;;;;;;;11.02;7.03;;;;;;;10.54;100.00;100762.09;5031326;28;20056;-73
2022/10/24 02:32:27;;;;;;;9.65;6.45;;;;;;;10.68;100.00;100829.66;5040445;28;20032;-73
2022/10/24 02:34:54;;;;;;;15.25;8.25;;;;;;;9.99;100.00;100719.63;5031439;28;20037;-73
2022/10/24 02:37:22;;;;;;;15.90;8.30;;;;;;;10.68;100.00;100834.75;5031288;28;20112;-73
2022/10/24 02:39:48;;;;;;;17.90;10.20;;;;;;;10.86;100.00;100833.63;5031699;28;20033;-74
2022/10/24 02:42:15;;;;;;;20.00;10.10;;;;;;;10.66;100.00;100805.94;5030882;28;20099;-74
2022/10/24 02:44:42;;;;;;;16.83;11.75;;;;;;;10.54;100.00;100825.66;5030006;28;20032;-75
2022/10/24 02:47:11;;;;;;;22.15;13.80;;;;;;;10.12;100.00;100745.75;5030462;28;20031;-74
2022/10/24 02:49:38;;;;;;;23.35;13.63;;;;;;;10.27;100.00;100776.03;5029908;28;20029;-74
2022/10/24 02:52:05;;;;;;;22.73;12.73;;;;;;;10.50;100.00;100821.47;5029747;28;20038;-73
2022/10/24 02:54:30;;;;;;;26.05;13.18;;;;;;;10.06;100.00;100746.63;5031486;28;20180;-74
2022/10/24 02:56:59;;;;;;;21.42;13.00;;;;;;;9.98;100.00;100762.84;5029699;28;20113;-73
2022/10/24 02:59:25;;;;;;;26.20;12.95;;;;;;;10.81;100.00;100820.16;5031370;28;20043;-75
2022/10/24 03:01:51;;;;;;;23.45;13.00;;;;;;;10.74;100.00;100831.25;5031361;28;20033;-73
2022/10/24 03:04:16;;;;;;;19.23;12.23;;;;;;;11.07;100.00;100808.69;5030806;28;20030;-73
2022/10/24 03:06:43;;;;;;;20.70;11.40;;;;;;;10.61;100.00;100767.06;5031254;28;20029;-73
2022/10/24 03:09:08;;;;;;;29.67;12.20;;;;;;;9.95;100.00;100766.25;5029688;28;20026;-73
2022/10/24 03:11:34;;;;;;;24.77;11.88;;;;;;;10.31;100.00;100787.84;5030876;28;20508;-74
2022/10/24 03:13:59;;;;;;;26.77;12.70;;;;;;;10.13;100.00;100788.06;5030760;28;20159;-74
2022/10/24 03:16:25;;;;;;;27.15;13.05;;;;;;;10.44;100.00;100822.38;5042840;28;20032;-74
2022/10/24 03:18:51;;;;;;;27.02;13.48;;;;;;;10.14;100.00;100769.44;5054826;28;20025;-73
2022/10/24 03:21:16;;;;;;;27.35;15.77;;;;;;;10.04;100.00;100837.25;5046007;28;20036;-73
2022/10/24 03:23:42;;;;;;;32.92;17.95;;;;;;;10.27;100.00;100774.34;5035466;28;20043;-72
2022/10/24 03:26:07;;;;;;;52.08;24.13;;;;;;;10.12;100.00;100763.53;5054523;28;20025;-74
2022/10/24 03:28:32;;;;;;;27.30;13.20;;;;;;;10.08;100.00;100769.50;5054765;28;20036;-74
2022/10/24 03:30:58;;;;;;;19.17;11.80;;;;;;;9.97;100.00;100767.09;5051909;28;20032;-73
2022/10/24 03:33:23;;;;;;;18.80;10.85;;;;;;;10.14;100.00;100830.44;5052613;28;20376;-75
2022/10/24 03:35:53;;;;;;;23.85;11.82;;;;;;;9.53;100.00;100776.91;5052189;28;20541;-74
2022/10/24 03:38:20;;;;;;;24.90;11.98;;;;;;;9.75;100.00;100826.59;5035132;28;20039;-75
2022/10/24 03:40:45;;;;;;;30.00;12.20;;;;;;;9.72;100.00;100826.66;5033489;28;20051;-75
2022/10/24 03:43:11;;;;;;;20.35;11.93;;;;;;;9.44;100.00;100784.63;5034987;28;20049;-75
2022/10/24 03:45:36;;;;;;;20.75;12.50;;;;;;;9.85;100.00;100823.09;5034085;28;20033;-76
2022/10/24 03:48:03;;;;;;;24.02;12.27;;;;;;;9.85;100.00;100829.88;5033275;28;20037;-75
2022/10/24 03:50:29;;;;;;;20.38;12.10;;;;;;;9.80;100.00;100832.47;5051926;28;20040;-75
2022/10/24 03:52:55;;;;;;;22.67;10.98;;;;;;;9.50;100.00;100831.09;5075017;28;20037;-74
2022/10/24 03:55:21;;;;;;;20.60;11.88;;;;;;;9.26;100.00;100785.66;5074204;28;20499;-73
2022/10/24 03:57:47;;;;;;;19.80;12.27;;;;;;;9.45;100.00;100784.63;5072958;28;20032;-74
2022/10/24 04:00:18;;;;;;;23.98;12.85;;;;;;;9.71;100.00;100816.47;5070160;28;20562;-74
2022/10/24 04:02:45;;;;;;;23.42;14.68;;;;;;;9.42;100.00;100792.28;5033323;28;20079;-71
2022/10/24 04:05:11;;;;;;;24.10;12.43;;;;;;;9.82;100.00;100827.38;5033014;28;20543;-72
2022/10/24 04:07:37;;;;;;;22.33;13.18;;;;;;;9.63;100.00;100794.56;5032086;28;20041;-70
2022/10/24 04:10:03;;;;;;;21.02;12.82;;;;;;;9.56;100.00;100795.50;5032516;28;20029;-70
2022/10/24 04:12:29;;;;;;;20.88;13.23;;;;;;;9.14;100.00;100752.81;5032921;28;20021;-70
2022/10/24 04:14:54;;;;;;;21.27;12.82;;;;;;;8.82;100.00;100711.69;5033395;28;20514;-72
2022/10/24 04:17:19;;;;;;;19.10;13.15;;;;;;;9.79;100.00;100833.31;5031835;28;20033;-71
2022/10/24 04:19:45;;;;;;;21.75;14.05;;;;;;;9.41;100.00;100755.06;5032679;28;20447;-70
2022/10/24 04:22:10;;;;;;;24.10;12.70;;;;;;;9.83;100.00;100827.34;5048060;28;20060;-71
2022/10/24 04:24:38;;;;;;;21.05;13.13;;;;;;;9.49;100.00;100819.25;5032690;28;20037;-70
2022/10/24 04:27:04;;;;;;;23.08;13.13;;;;;;;9.25;100.00;100781.44;5032663;28;20029;-72
2022/10/24 04:29:29;;;;;;;21.33;13.30;;;;;;;10.06;100.00;100848.25;5033421;28;20030;-75
2022/10/24 04:31:55;;;;;;;24.77;12.85;;;;;;;9.36;100.00;100787.25;5032797;28;20086;-70
2022/10/24 04:34:20;;;;;;;22.80;12.88;;;;;;;9.16;100.00;100755.31;5032937;28;20036;-71
2022/10/24 04:36:45;;;;;;;21.38;13.13;;;;;;;9.84;100.00;100820.59;5044242;28;20136;-69
2022/10/24 04:39:11;;;;;;;27.50;14.25;;;;;;;9.17;100.00;100716.44;5052086;28;20036;-71
2022/10/24 04:41:36;;;;;;;36.17;14.30;;;;;;;9.31;100.00;100768.69;5050954;28;20029;-71
2022/10/24 04:44:02;;;;;;;28.67;13.77;;;;;;;10.01;100.00;100860.16;5051767;28;20657;-72
2022/10/24 04:46:27;;;;;;;25.30;12.15;;;;;;;10.24;100.00;100763.38;5050980;28;20028;-69
2022/10/24 04:48:53;;;;;;;27.58;13.77;;;;;;;9.64;100.00;100734.50;5052124;28;20025;-69
2022/10/24 04:51:18;;;;;;;25.33;12.57;;;;;;;10.58;100.00;100837.47;5042502;28;20041;-71
2022/10/24 04:53:44;;;;;;;22.83;12.80;;;;;;;10.04;100.00;100780.56;5041163;28;20099;-70
2022/10/24 04:56:09;;;;;;;26.15;13.05;;;;;;;10.03;100.00;100787.31;5052130;28;20025;-71
2022/10/24 04:58:35;;;;;;;26.27;13.27;;;;;;;10.05;100.00;100846.56;5051689;28;20031;-70
2022/10/24 05:01:01;;;;;;;29.30;13.25;;;;;;;9.98;100.00;100850.03;5050136;28;20025;-71
2022/10/24 05:03:26;;;;;;;38.47;14.05;;;;;;;9.07;100.00;100794.28;5051226;28;20036;-71
2022/10/24 05:05:52;;;;;;;34.15;13.98;;;;;;;9.65;100.00;100837.72;5050837;28;20400;-71
2022/10/24 05:08:17;;;;;;;27.80;13.60;;;;;;;9.32;100.00;100765.31;5051931;28;20419;-71
2022/10/24 05:10:43;;;;;;;27.38;13.38;;;;;;;10.15;100.00;100843.09;5052252;28;20025;-71
2022/10/24 05:13:09;;;;;;;32.28;13.27;;;;;;;9.81;100.00;100854.47;5051355;28;20052;-71
2022/10/24 05:15:35;;;;;;;29.23;14.45;;;;;;;10.02;100.00;100855.94;5051597;28;20025;-70
2022/10/24 05:18:00;;;;;;;33.50;14.20;;;;;;;10.25;100.00;100848.91;5051212;28;20038;-71
2022/10/24 05:20:26;;;;;;;37.42;15.00;;;;;;;12.49;100.00;100807.63;5050121;28;20477;-71
2022/10/24 05:22:51;;;;;;;36.35;14.48;;;;;;;12.72;100.00;100826.63;5049535;28;20026;-70
2022/10/24 05:25:17;;;;;;;26.00;14.40;;;;;;;12.25;100.00;100867.63;5051253;28;20037;-71
2022/10/24 05:27:43;;;;;;;29.65;14.95;;;;;;;11.48;100.00;100875.88;5051344;28;20407;-70
2022/10/24 05:30:09;;;;;;;23.10;14.35;;;;;;;11.68;100.00;100849.22;5051533;28;20039;-70
2022/10/24 05:32:34;;;;;;;31.90;17.48;;;;;;;12.98;100.00;100877.06;5051381;28;20111;-70
2022/10/24 05:35:00;;;;;;;36.10;16.77;;;;;;;12.16;100.00;100812.56;5051685;28;20067;-70
2022/10/24 05:37:25;;;;;;;35.58;17.45;;;;;;;12.66;100.00;100864.19;5051780;28;20029;-70
2022/10/24 05:39:51;;;;;;;30.77;15.45;;;;;;;11.40;100.00;100775.88;5051279;28;20028;-70
2022/10/24 05:42:17;;;;;;;29.25;15.18;;;;;;;12.06;100.00;100861.25;5051261;28;20468;-70
2022/10/24 05:44:42;;;;;;;30.50;15.38;;;;;;;12.86;100.00;100832.25;5051116;28;20021;-70
2022/10/24 05:47:08;;;;;;;25.95;13.50;;;;;;;13.99;100.00;100873.66;5051440;28;20040;-70
2022/10/24 05:49:33;;;;;;;34.53;15.40;;;;;;;14.55;100.00;100878.88;5050871;28;20444;-72
2022/10/24 05:51:59;;;;;;;37.78;17.40;;;;;;;14.70;100.00;100829.78;5051014;28;20035;-71
2022/10/24 05:54:24;;;;;;;31.38;13.95;;;;;;;14.76;100.00;100877.38;5051089;28;20107;-69
2022/10/24 05:56:50;;;;;;;25.20;13.57;;;;;;;16.24;100.00;100836.44;5051122;28;20025;-70
2022/10/24 05:59:15;;;;;;;20.48;12.05;;;;;;;14.92;100.00;100834.19;5051016;28;20491;-70
2022/10/24 06:01:41;;;;;;;40.45;27.25;;;;;;;14.78;100.00;100912.28;5050945;28;20560;-70
2022/10/24 06:04:06;;;;;;;44.33;29.17;;;;;;;15.99;100.00;100899.78;5050873;28;20091;-70
2022/10/24 06:06:33;;;;;;;58.60;40.72;;;;;;;15.47;100.00;100891.31;5050424;28;20429;-71
2022/10/24 06:08:59;;;;;;;45.72;35.55;;;;;;;14.75;100.00;100875.72;5050874;28;20017;-70
2022/10/24 06:11:24;;;;;;;52.75;34.75;;;;;;;14.59;100.00;100821.59;5051312;28;20476;-70
2022/10/24 06:13:49;;;;;;;45.72;33.85;;;;;;;15.47;100.00;100910.97;5049396;28;20029;-70
2022/10/24 06:16:15;;;;;;;47.95;31.73;;;;;;;14.31;100.00;100899.22;5050635;28;20545;-70
2022/10/24 06:18:40;;;;;;;48.30;31.88;;;;;;;12.68;100.00;100788.47;5050512;28;20637;-71
2022/10/24 06:21:07;;;;;;;48.88;32.78;;;;;;;13.42;100.00;100892.19;5050528;28;20036;-71
2022/10/24 06:23:33;;;;;;;50.88;34.25;;;;;;;13.05;100.00;100802.06;5050799;28;20031;-71
2022/10/24 06:25:59;;;;;;;44.45;29.08;;;;;;;13.66;100.00;100843.03;5049342;28;20102;-71
2022/10/24 06:28:25;;;;;;;39.50;27.60;;;;;;;13.65;100.00;100891.59;5050540;28;20523;-71
2022/10/24 06:30:53;;;;;;;46.10;27.15;;;;;;;14.04;100.00;100905.06;5048971;28;20044;-71
2022/10/24 06:33:19;;;;;;;45.15;29.08;;;;;;;13.07;100.00;100832.66;5050299;28;20020;-71
2022/10/24 06:35:44;;;;;;;46.88;27.88;;;;;;;13.35;100.00;100893.22;5050517;28;20111;-70
2022/10/24 06:38:10;;;;;;;46.15;27.90;;;;;;;13.77;100.00;100796.72;5049190;28;20038;-72
2022/10/24 06:40:38;;;;;;;39.58;27.80;;;;;;;14.23;100.00;100901.09;5050082;28;20123;-70
2022/10/24 06:43:03;;;;;;;49.28;27.48;;;;;;;14.12;100.00;100854.56;5049233;28;20166;-71
2022/10/24 06:45:29;;;;;;;45.05;27.10;;;;;;;14.91;100.00;100902.53;5050113;28;20492;-70
2022/10/24 06:47:54;;;;;;;40.17;26.63;;;;;;;14.99;100.00;100902.28;5050177;28;21061;-71
2022/10/24 06:50:19;;;;;;;48.75;27.27;;;;;;;14.77;100.00;100858.59;5049856;28;20037;-70
2022/10/24 06:52:45;;;;;;;47.65;27.73;;;;;;;14.77;100.00;100899.53;5050054;28;20033;-71
2022/10/24 06:55:10;;;;;;;40.30;25.55;;;;;;;14.86;100.00;100916.34;5050198;28;20480;-70
2022/10/24 06:57:36;;;;;;;37.42;22.58;;;;;;;13.97;100.00;100798.72;5050035;28;20530;-70
2022/10/24 07:00:02;;;;;;;31.02;21.02;;;;;;;14.98;100.00;100886.06;5049816;28;20029;-70
2022/10/24 07:02:28;;;;;;;27.58;17.70;;;;;;;14.61;100.00;100795.94;5049788;28;20569;-70
2022/10/24 07:04:55;;;;;;;29.67;18.20;;;;;;;15.21;100.00;100903.28;5050011;28;20123;-70
2022/10/24 07:07:21;;;;;;;32.92;18.23;;;;;;;15.63;100.00;100883.94;5050092;28;20029;-70
2022/10/24 07:09:56;;;;;;;34.28;16.63;;;;;;;15.05;100.00;100846.59;5048641;28;20036;-71
2022/10/24 07:12:23;;;;;;;23.13;14.57;;;;;;;15.82;100.00;100868.78;5049993;28;20098;-72
2022/10/24 07:14:48;;;;;;;22.33;12.65;;;;;;;15.46;100.00;100868.31;5048611;28;20407;-70
2022/10/24 07:17:15;;;;;;;18.63;11.65;;;;;;;15.19;100.00;100862.31;5048582;28;20029;-71
2022/10/24 07:19:40;;;;;;;18.00;11.18;;;;;;;15.16;100.00;100788.16;5048831;28;20060;-71
2022/10/24 07:22:06;;;;;;;18.30;11.77;;;;;;;16.13;100.00;100900.97;5050037;28;20461;-71
2022/10/24 07:24:33;;;;;;;17.70;11.93;;;;;;;16.33;100.00;100841.22;5049698;28;20032;-71
2022/10/24 07:26:58;;;;;;;19.58;12.10;;;;;;;15.59;100.00;100831.09;5050267;28;20436;-71
2022/10/24 07:29:24;;;;;;;22.13;13.25;;;;;;;14.75;100.00;100775.88;5048657;28;20029;-72
2022/10/24 07:31:49;;;;;;;16.27;12.05;;;;;;;16.09;100.00;100896.00;5048464;28;20037;-71
2022/10/24 07:34:15;;;;;;;16.52;11.40;;;;;;;16.31;100.00;100881.50;5049875;28;20099;-71
2022/10/24 07:36:40;;;;;;;19.38;11.82;;;;;;;16.47;100.00;100880.03;5049799;28;20032;-71
2022/10/24 07:39:06;;;;;;;20.48;11.88;;;;;;;16.98;100.00;100883.19;5050107;28;20025;-70
2022/10/24 07:41:32;;;;;;;17.08;10.90;;;;;;;16.50;100.00;100877.38;5049592;28;20033;-71
2022/10/24 07:43:59;;;;;;;17.45;9.82;;;;;;;16.03;100.00;100788.47;5047883;28;20048;-71
2022/10/24 07:46:25;;;;;;;15.18;10.10;;;;;;;16.61;100.00;100869.28;5049877;28;20080;-71
2022/10/24 07:48:51;;;;;;;15.70;10.23;;;;;;;16.84;100.00;100843.53;5049280;28;20036;-71
2022/10/24 07:51:17;;;;;;;14.90;9.57;;;;;;;17.21;100.00;100830.88;5049507;28;20029;-71
2022/10/24 07:53:43;;;;;;;16.17;9.40;;;;;;;16.81;100.00;100848.81;5048653;28;20029;-71
2022/10/24 07:56:13;;;;;;;13.68;8.75;;;;;;;17.25;100.00;100851.22;5048353;28;20090;-72
2022/10/24 07:58:39;;;;;;;14.25;9.50;;;;;;;17.37;100.00;100864.50;5049884;28;20025;-71
2022/10/24 08:01:11;;;;;;;16.35;8.82;;;;;;;17.47;100.00;100865.78;5048087;28;20033;-72
2022/10/24 08:03:37;;;;;;;18.40;9.57;;;;;;;17.70;100.00;100860.53;5051265;28;20036;-72
2022/10/24 08:06:17;;;;;;;15.65;8.48;;;;;;;17.02;100.00;100830.78;5053177;28;20470;-72
2022/10/24 08:08:43;;;;;;;10.45;7.43;;;;;;;17.08;100.00;100770.59;5053227;28;20507;-71
2022/10/24 08:11:11;;;;;;;10.77;7.28;;;;;;;17.05;100.00;100828.13;5052994;28;20028;-70
2022/10/24 08:13:37;;;;;;;13.10;7.63;;;;;;;17.76;100.00;100868.81;5051278;28;20025;-70
2022/10/24 08:16:09;;;;;;;11.07;7.20;;;;;;;17.78;100.00;100840.47;5053144;28;20033;-70
2022/10/24 08:18:35;;;;;;;14.52;6.93;;;;;;;18.11;100.00;100880.13;5053065;28;20116;-70
2022/10/24 08:21:04;;;;;;;7.95;6.38;;;;;;;18.01;100.00;100890.00;5053443;28;20041;-70
2022/10/24 08:23:31;;;;;;;8.73;6.25;;;;;;;18.67;100.00;100887.91;5051417;28;20041;-72
2022/10/24 08:25:56;;;;;;;11.05;6.20;;;;;;;18.66;100.00;100874.19;5052981;28;20033;-71
2022/10/24 08:28:22;;;;;;;9.52;5.25;;;;;;;17.97;100.00;100849.03;5052278;28;20036;-71
2022/10/24 08:30:59;;;;;;;9.05;5.95;;;;;;;18.37;100.00;100817.16;5052528;28;20029;-70
2022/10/24 08:33:25;;;;;;;9.57;5.25;;;;;;;18.64;100.00;100837.34;5052720;28;20086;-70
2022/10/24 08:35:55;;;;;;;12.73;5.90;;;;;;;19.32;100.00;100866.69;5051401;28;20079;-70
2022/10/24 08:38:21;;;;;;;10.32;5.60;;;;;;;18.66;100.00;100860.47;5051170;28;20029;-71
2022/10/24 08:40:50;;;;;;;7.30;4.78;;;;;;;19.29;100.00;100851.38;5052239;28;20529;-71
2022/10/24 08:43:17;;;;;;;6.10;4.68;;;;;;;19.24;100.00;100861.06;5052071;28;20140;-70
2022/10/24 08:46:01;;;;;;;4.88;3.75;;;;;;;19.28;100.00;100858.28;5050821;28;20032;-71
2022/10/24 08:48:32;;;;;;;8.82;4.13;;;;;;;19.00;100.00;100816.69;5052806;28;20091;-73
2022/10/24 08:51:09;;;;;;;4.57;3.55;;;;;;;19.31;100.00;100795.41;5052147;28;20027;-72
2022/10/24 08:53:36;;;;;;;8.32;3.90;;;;;;;19.36;99.96;100796.00;5051282;28;20044;-73
2022/10/24 08:56:03;;;;;;;6.13;3.75;;;;;;;19.39;96.48;100804.41;5052262;28;20036;-72
2022/10/24 08:58:37;;;;;;;6.10;3.05;;;;;;;19.50;97.37;100804.72;5050825;28;20132;-72
2022/10/24 09:01:12;;;;;;;6.75;3.83;;;;;;;20.43;92.22;100839.34;5052205;28;20033;-71
2022/10/24 09:03:47;;;;;;;4.88;3.60;;;;;;;19.51;94.94;100800.41;5052274;28;20039;-71
2022/10/24 09:06:19;;;;;;;8.82;4.10;;;;;;;19.42;91.50;100780.22;5052242;28;20059;-71
2022/10/24 09:08:53;;;;;;;6.65;3.40;;;;;;;20.42;88.85;100848.84;5052274;28;20037;-71
2022/10/24 09:11:30;;;;;;;5.32;3.63;;;;;;;20.16;89.06;100795.19;5050195;28;20029;-71
2022/10/24 09:14:00;;;;;;;8.75;3.90;;;;;;;20.42;90.42;100848.84;5051553;28;20029;-71
2022/10/24 09:16:26;;;;;;;8.75;4.10;;;;;;;20.72;87.87;100842.00;5050704;28;20033;-70
2022/10/24 09:18:54;;;;;;;10.27;4.15;;;;;;;20.73;84.43;100797.16;5051970;28;20578;-73
2022/10/24 09:21:21;;;;;;;10.15;4.10;;;;;;;20.93;83.32;100818.44;5050293;28;20024;-71
2022/10/24 09:23:49;;;;;;;15.32;4.88;;;;;;;20.98;84.76;100803.47;5051883;28;20049;-70
2022/10/24 09:26:22;;;;;;;9.23;4.90;;;;;;;20.32;86.16;100818.44;4695356;28;10000339;-70
2022/10/24 09:28:47;;;;;;;12.75;5.30;;;;;;;21.32;81.07;100814.41;5025775;28;20710;-71
2022/10/24 09:31:19;;;;;;;10.30;4.63;;;;;;;20.86;79.04;100774.00;5027267;28;20500;-69
2022/10/24 09:33:46;;;;;;;11.18;4.63;;;;;;;20.94;81.49;100768.38;5028205;28;20120;-69
2022/10/24 09:36:15;;;;;;;9.88;4.80;;;;;;;21.40;77.34;100806.19;5026794;28;20029;-71
2022/10/24 09:38:42;;;;;;;7.00;4.18;;;;;;;21.07;78.69;100810.75;5027986;28;20040;-71
2022/10/24 09:41:28;;;;;;;6.85;4.10;;;;;;;20.92;76.17;100746.97;5028092;28;20056;-70
2022/10/24 09:43:56;;;;;;;7.43;4.03;;;;;;;21.88;72.49;100805.03;5028280;28;20046;-71
2022/10/24 09:46:35;;;;;;;8.25;4.40;;;;;;;21.42;72.54;100711.19;5027113;28;20440;-70
2022/10/24 09:49:11;;;;;;;10.43;4.57;;;;;;;21.72;69.88;100758.50;5037004;28;20059;-72
2022/10/24 09:51:41;;;;;;;8.30;4.30;;;;;;;21.72;73.28;100745.56;5029064;28;20036;-70
2022/10/24 09:54:18;;;;;;;8.10;4.45;;;;;;;21.68;70.69;100789.84;5048991;28;20082;-71
2022/10/24 09:56:53;;;;;;;7.57;4.35;;;;;;;21.27;71.50;100735.41;5051345;28;20057;-73
2022/10/24 09:59:44;;;;;;;9.35;3.83;;;;;;;21.88;67.84;100688.50;5031749;28;20044;-73
2022/10/24 10:02:09;;;;;;;7.57;3.67;;;;;;;23.06;65.39;100772.31;5030726;28;20040;-74
2022/10/24 10:04:36;;;;;;;7.07;3.58;;;;;;;22.70;64.45;100775.56;5031635;28;20026;-74
2022/10/24 10:07:15;;;;;;;6.10;3.50;;;;;;;22.33;64.81;100714.88;5031630;28;20033;-72
2022/10/24 10:09:57;;;;;;;7.88;3.60;;;;;;;22.65;62.21;100723.19;5030422;28;20045;-73
2022/10/24 10:12:39;;;;;;;5.43;3.25;;;;;;;22.55;59.13;100710.88;5031359;28;20025;-74
2022/10/24 10:15:34;;;;;;;5.50;3.22;;;;;;;23.00;58.03;100750.19;5031043;28;20037;-74
2022/10/24 10:18:04;;;;;;;10.57;3.50;;;;;;;23.05;59.02;100717.00;5009309;28;20412;-73
2022/10/24 10:20:38;;;;;;;6.65;3.67;;;;;;;23.76;56.30;100750.19;5030572;28;20459;-73
2022/10/24 10:23:15;;;;;;;5.80;3.22;;;;;;;23.50;56.27;100757.19;5029422;28;20029;-73
2022/10/24 10:25:41;;;;;;;4.85;3.20;;;;;;;23.99;56.34;100739.81;5028780;28;20115;-74
2022/10/24 10:28:22;;;;;;;4.07;3.20;;;;;;;23.66;56.86;100751.75;5029258;28;20482;-73
2022/10/24 10:30:52;;;;;;;8.40;3.85;;;;;;;23.68;55.83;100697.94;5031144;28;20021;-73
2022/10/24 10:33:37;;;;;;;4.50;3.87;;;;;;;24.14;54.93;100714.53;5030969;28;20033;-72
2022/10/24 10:36:28;;;;;;;6.55;4.20;;;;;;;23.90;56.11;100737.03;5029441;28;20033;-72
2022/10/24 10:39:11;;;;;;;6.03;3.90;;;;;;;24.14;54.95;100737.09;5029357;28;20029;-72
2022/10/24 10:42:08;;;;;;;7.95;3.78;;;;;;;24.16;53.41;100732.63;5029166;28;20030;-71
2022/10/24 10:44:42;;;;;;;5.25;3.55;;;;;;;24.03;53.43;100724.84;5030441;28;20500;-71
2022/10/24 10:47:39;;;;;;;5.70;3.58;;;;;;;23.96;52.25;100715.81;5009643;28;20046;-71
2022/10/24 10:50:31;;;;;;;8.13;3.08;;;;;;;23.67;52.38;100696.28;5010727;28;20030;-72
2022/10/24 10:53:15;;;;;;;7.13;4.15;;;;;;;24.40;51.35;100708.28;5009899;28;20124;-71
2022/10/24 10:55:57;;;;;;;9.73;3.70;;;;;;;24.55;49.71;100714.94;5009256;28;20030;-72
2022/10/24 10:58:33;;;;;;;6.60;3.90;;;;;;;24.21;51.28;100657.72;5010698;28;20030;-71
2022/10/24 11:01:06;;;;;;;6.40;3.83;;;;;;;24.86;49.32;100705.69;5009354;28;20122;-71
2022/10/24 11:03:44;;;;;;;6.22;4.00;;;;;;;25.00;49.90;100709.88;5009414;28;20026;-71
2022/10/24 11:06:15;;;;;;;4.88;3.58;;;;;;;24.88;49.14;100701.19;5010600;28;20461;-71
2022/10/24 11:09:16;;;;;;;6.60;3.20;;;;;;;24.53;50.02;100698.63;5010664;28;20037;-71
2022/10/24 11:11:45;;;;;;;7.13;3.42;;;;;;;24.85;49.33;100676.25;5010941;28;20034;-71
2022/10/24 11:14:32;;;;;;;4.38;3.28;;;;;;;25.34;48.14;100688.94;5009606;28;20038;-71
2022/10/24 11:17:09;;;;;;;3.80;3.35;;;;;;;25.02;48.34;100677.56;5010293;28;20038;-71
2022/10/24 11:20:13;;;;;;;6.18;3.28;;;;;;;25.12;47.77;100680.28;5010750;28;20117;-71
2022/10/24 11:22:47;;;;;;;6.57;3.42;;;;;;;24.38;48.13;100626.13;4979125;28;20451;-71
2022/10/24 11:25:49;;;;;;;6.40;3.47;;;;;;;25.31;47.79;100672.72;5010281;28;20050;-71